SUR4070 SLLP-SPJC
Flight info
| Callsign | SUR4070 |
|---|---|
| Flight time | N/A |
| Altitude | 31999 |
| Route | KOMPA OLGAS SIMEL UT323 SCO ESEDI3 |
| Aircraft | E190/M-S/1200 |
Departure
| Time | 2026-04-25 11:29 |
|---|---|
| Airport | El Alto International Airport (SLLP) |
Arrival
| Time | N/A |
|---|---|
| Airport | Jorge Chávez International Airport (SPJC) |
| Time | Latitude | Longitude | Altitude | Speed | Heading |
|---|---|---|---|---|---|
| 2026-04-25 11:22 | -16.50928 | -68.17870 | 13360 ft | 0 kts | 1° |
| 2026-04-25 11:23 | -16.50926 | -68.17867 | 13360 ft | 0 kts | 57° |
| 2026-04-25 11:23 | -16.50930 | -68.17863 | 13361 ft | 2 kts | 156° |
| 2026-04-25 11:23 | -16.50964 | -68.17875 | 13359 ft | 6 kts | 221° |
| 2026-04-25 11:23 | -16.51017 | -68.17916 | 13354 ft | 11 kts | 215° |
| 2026-04-25 11:24 | -16.51090 | -68.17981 | 13348 ft | 16 kts | 223° |
| 2026-04-25 11:24 | -16.51169 | -68.18073 | 13338 ft | 19 kts | 225° |
| 2026-04-25 11:24 | -16.51259 | -68.18178 | 13327 ft | 20 kts | 236° |
| 2026-04-25 11:24 | -16.51310 | -68.18265 | 13320 ft | 0 kts | 246° |
| 2026-04-25 11:25 | -16.51310 | -68.18266 | 13320 ft | 0 kts | 248° |
| 2026-04-25 11:25 | -16.51328 | -68.18311 | 13316 ft | 13 kts | 249° |
| 2026-04-25 11:25 | -16.51348 | -68.18455 | 13308 ft | 26 kts | 267° |
| 2026-04-25 11:25 | -16.51350 | -68.18677 | 13295 ft | 34 kts | 269° |
| 2026-04-25 11:26 | -16.51345 | -68.18962 | 13275 ft | 44 kts | 271° |
| 2026-04-25 11:26 | -16.51333 | -68.19308 | 13259 ft | 50 kts | 271° |
| 2026-04-25 11:26 | -16.51323 | -68.19674 | 13244 ft | 50 kts | 272° |
| 2026-04-25 11:26 | -16.51312 | -68.20045 | 13223 ft | 52 kts | 271° |
| 2026-04-25 11:27 | -16.51300 | -68.20422 | 13204 ft | 52 kts | 272° |
| 2026-04-25 11:27 | -16.51292 | -68.20750 | 13186 ft | 30 kts | 276° |
| 2026-04-25 11:27 | -16.51294 | -68.20899 | 13177 ft | 5 kts | 264° |
| 2026-04-25 11:27 | -16.51294 | -68.20903 | 13177 ft | 0 kts | 287° |
| 2026-04-25 11:28 | -16.51288 | -68.20898 | 13177 ft | 0 kts | 77° |
| 2026-04-25 11:28 | -16.51285 | -68.20860 | 13179 ft | 27 kts | 89° |
| 2026-04-25 11:28 | -16.51303 | -68.20441 | 13203 ft | 88 kts | 92° |
| 2026-04-25 11:28 | -16.51321 | -68.19612 | 13247 ft | 139 kts | 91° |
| 2026-04-25 11:29 | -16.51333 | -68.18468 | 13342 ft | 175 kts | 90° |
| 2026-04-25 11:29 | -16.51353 | -68.17136 | 13597 ft | 193 kts | 94° |
| 2026-04-25 11:29 | -16.51394 | -68.15613 | 13668 ft | 227 kts | 91° |
| 2026-04-25 11:29 | -16.51404 | -68.13932 | 14051 ft | 232 kts | 91° |
| 2026-04-25 11:30 | -16.51544 | -68.12228 | 14411 ft | 249 kts | 112° |
| 2026-04-25 11:30 | -16.52598 | -68.10796 | 14859 ft | 259 kts | 150° |
| 2026-04-25 11:30 | -16.54354 | -68.10269 | 15310 ft | 268 kts | 186° |
| 2026-04-25 11:30 | -16.56103 | -68.10888 | 15740 ft | 278 kts | 219° |
| 2026-04-25 11:31 | -16.57282 | -68.12471 | 16167 ft | 289 kts | 251° |
| 2026-04-25 11:31 | -16.57483 | -68.14538 | 16590 ft | 299 kts | 277° |
| 2026-04-25 11:31 | -16.57402 | -68.16680 | 16959 ft | 304 kts | 264° |
| 2026-04-25 11:31 | -16.57753 | -68.18800 | 17295 ft | 303 kts | 258° |
| 2026-04-25 11:32 | -16.58266 | -68.20908 | 17616 ft | 305 kts | 255° |
| 2026-04-25 11:32 | -16.58854 | -68.23020 | 17939 ft | 306 kts | 254° |
| 2026-04-25 11:32 | -16.59475 | -68.25125 | 18234 ft | 305 kts | 254° |
| 2026-04-25 11:32 | -16.60113 | -68.27238 | 18534 ft | 307 kts | 253° |
| 2026-04-25 11:33 | -16.60761 | -68.29366 | 18834 ft | 307 kts | 254° |
| 2026-04-25 11:33 | -16.61405 | -68.31472 | 19128 ft | 307 kts | 254° |
| 2026-04-25 11:33 | -16.62055 | -68.33594 | 19421 ft | 308 kts | 254° |
| 2026-04-25 11:33 | -16.62713 | -68.35739 | 19720 ft | 309 kts | 254° |
| 2026-04-25 11:34 | -16.63375 | -68.37901 | 20010 ft | 309 kts | 254° |
| 2026-04-25 11:34 | -16.64030 | -68.40040 | 20293 ft | 311 kts | 254° |
| 2026-04-25 11:34 | -16.64689 | -68.42192 | 20586 ft | 311 kts | 255° |
| 2026-04-25 11:34 | -16.65344 | -68.44332 | 20874 ft | 310 kts | 255° |
| 2026-04-25 11:35 | -16.66014 | -68.46520 | 21167 ft | 313 kts | 255° |
| 2026-04-25 11:35 | -16.66673 | -68.48678 | 21459 ft | 319 kts | 255° |
| 2026-04-25 11:35 | -16.67304 | -68.50921 | 21752 ft | 327 kts | 264° |
| 2026-04-25 11:35 | -16.67089 | -68.53283 | 22072 ft | 331 kts | 291° |
| 2026-04-25 11:36 | -16.65875 | -68.55317 | 22407 ft | 339 kts | 309° |
| 2026-04-25 11:36 | -16.64246 | -68.57148 | 22740 ft | 347 kts | 311° |
| 2026-04-25 11:36 | -16.62533 | -68.58969 | 23059 ft | 355 kts | 312° |
| 2026-04-25 11:36 | -16.60779 | -68.60796 | 23377 ft | 362 kts | 312° |
| 2026-04-25 11:37 | -16.58975 | -68.62660 | 23700 ft | 369 kts | 313° |
| 2026-04-25 11:37 | -16.57130 | -68.64559 | 24044 ft | 375 kts | 312° |
| 2026-04-25 11:37 | -16.55251 | -68.66490 | 24409 ft | 380 kts | 313° |
| 2026-04-25 11:37 | -16.53359 | -68.68434 | 24770 ft | 382 kts | 313° |
| 2026-04-25 11:38 | -16.51472 | -68.70373 | 25129 ft | 384 kts | 313° |
| 2026-04-25 11:38 | -16.49568 | -68.72327 | 25488 ft | 384 kts | 312° |
| 2026-04-25 11:38 | -16.47648 | -68.74299 | 25856 ft | 386 kts | 312° |
| 2026-04-25 11:38 | -16.45740 | -68.76256 | 26217 ft | 389 kts | 312° |
| 2026-04-25 11:39 | -16.43793 | -68.78253 | 26580 ft | 392 kts | 312° |
| 2026-04-25 11:39 | -16.41857 | -68.80238 | 26942 ft | 394 kts | 312° |
| 2026-04-25 11:39 | -16.39902 | -68.82243 | 27306 ft | 395 kts | 312° |
| 2026-04-25 11:39 | -16.37941 | -68.84252 | 27670 ft | 398 kts | 312° |
| 2026-04-25 11:40 | -16.35960 | -68.86282 | 28035 ft | 398 kts | 312° |
| 2026-04-25 11:40 | -16.33966 | -68.88325 | 28403 ft | 401 kts | 312° |
| 2026-04-25 11:40 | -16.31977 | -68.90361 | 28772 ft | 404 kts | 312° |
| 2026-04-25 11:40 | -16.29957 | -68.92429 | 29138 ft | 407 kts | 311° |
| 2026-04-25 11:41 | -16.27959 | -68.94473 | 29491 ft | 406 kts | 312° |
| 2026-04-25 11:41 | -16.25925 | -68.96554 | 29849 ft | 409 kts | 312° |
| 2026-04-25 11:41 | -16.23910 | -68.98614 | 30205 ft | 411 kts | 312° |
| 2026-04-25 11:41 | -16.21862 | -69.00708 | 30562 ft | 410 kts | 312° |
| 2026-04-25 11:42 | -16.19809 | -69.02807 | 30920 ft | 412 kts | 312° |
| 2026-04-25 11:42 | -16.17786 | -69.04875 | 31272 ft | 413 kts | 312° |
| 2026-04-25 11:42 | -16.15712 | -69.06993 | 31630 ft | 414 kts | 313° |
| 2026-04-25 11:42 | -16.13673 | -69.09074 | 31982 ft | 415 kts | 312° |
| 2026-04-25 11:43 | -16.11593 | -69.11199 | 32188 ft | 419 kts | 313° |
| 2026-04-25 11:43 | -16.09517 | -69.13316 | 32203 ft | 422 kts | 313° |
| 2026-04-25 11:43 | -16.05477 | -69.17437 | 32209 ft | 419 kts | 313° |
| 2026-04-25 11:44 | -16.01313 | -69.21682 | 32210 ft | 420 kts | 313° |
| 2026-04-25 11:44 | -15.97222 | -69.25977 | 32205 ft | 419 kts | 307° |
| 2026-04-25 11:45 | -15.94412 | -69.31197 | 32218 ft | 415 kts | 288° |
| 2026-04-25 11:45 | -15.93251 | -69.37035 | 32232 ft | 416 kts | 272° |
| 2026-04-25 11:46 | -15.94084 | -69.42993 | 32243 ft | 421 kts | 258° |
| 2026-04-25 11:46 | -15.95136 | -69.48904 | 32633 ft | 412 kts | 263° |
| 2026-04-25 11:47 | -15.95557 | -69.51865 | 32825 ft | 416 kts | 264° |
| 2026-04-25 11:47 | -15.95964 | -69.54837 | 32858 ft | 424 kts | 264° |
| 2026-04-25 11:47 | -15.96797 | -69.60998 | 32861 ft | 436 kts | 264° |
| 2026-04-25 11:48 | -15.97639 | -69.67255 | 32873 ft | 436 kts | 264° |
| 2026-04-25 11:48 | -15.98469 | -69.73440 | 32874 ft | 435 kts | 264° |
| 2026-04-25 11:49 | -15.99304 | -69.79677 | 32875 ft | 435 kts | 264° |
| 2026-04-25 11:49 | -16.00134 | -69.85889 | 32876 ft | 434 kts | 264° |
| 2026-04-25 11:50 | -16.00961 | -69.92099 | 32891 ft | 434 kts | 264° |
| 2026-04-25 11:50 | -16.01783 | -69.98274 | 32877 ft | 434 kts | 264° |
| 2026-04-25 11:51 | -16.02609 | -70.04499 | 32877 ft | 435 kts | 264° |
| 2026-04-25 11:51 | -16.03429 | -70.10689 | 32872 ft | 435 kts | 264° |
| 2026-04-25 11:52 | -16.04247 | -70.16888 | 32901 ft | 432 kts | 264° |
| 2026-04-25 11:52 | -16.05058 | -70.23041 | 32919 ft | 433 kts | 264° |
| 2026-04-25 11:53 | -16.05871 | -70.29216 | 32933 ft | 433 kts | 264° |
| 2026-04-25 11:53 | -16.06680 | -70.35389 | 32936 ft | 432 kts | 264° |
| 2026-04-25 11:54 | -16.07492 | -70.41585 | 32946 ft | 433 kts | 264° |
| 2026-04-25 11:55 | -16.08702 | -70.50853 | 32968 ft | 431 kts | 264° |
| 2026-04-25 11:55 | -16.09498 | -70.56975 | 32962 ft | 432 kts | 264° |
| 2026-04-25 11:56 | -16.10304 | -70.63178 | 32964 ft | 431 kts | 264° |
| 2026-04-25 11:56 | -16.11101 | -70.69329 | 32979 ft | 430 kts | 265° |
| 2026-04-25 11:57 | -16.11897 | -70.75485 | 32987 ft | 431 kts | 264° |
| 2026-04-25 11:57 | -16.12689 | -70.81625 | 32996 ft | 429 kts | 264° |
| 2026-04-25 11:58 | -16.13475 | -70.87733 | 33023 ft | 430 kts | 265° |
| 2026-04-25 11:58 | -16.14265 | -70.93883 | 33015 ft | 429 kts | 265° |
| 2026-04-25 11:59 | -16.15055 | -71.00054 | 32978 ft | 429 kts | 264° |
| 2026-04-25 11:59 | -16.15840 | -71.06193 | 32993 ft | 429 kts | 265° |
| 2026-04-25 12:00 | -16.17013 | -71.15400 | 32979 ft | 429 kts | 265° |
| 2026-04-25 12:01 | -16.18169 | -71.24506 | 32900 ft | 428 kts | 264° |
| 2026-04-25 12:01 | -16.18944 | -71.30621 | 32850 ft | 429 kts | 265° |
| 2026-04-25 12:02 | -16.20101 | -71.39793 | 32738 ft | 429 kts | 265° |
| 2026-04-25 12:02 | -16.20874 | -71.45928 | 32669 ft | 430 kts | 265° |
| 2026-04-25 12:03 | -16.21649 | -71.52100 | 32618 ft | 429 kts | 265° |
| 2026-04-25 12:03 | -16.22416 | -71.58225 | 32585 ft | 428 kts | 264° |
| 2026-04-25 12:04 | -16.23183 | -71.64358 | 32562 ft | 428 kts | 264° |
| 2026-04-25 12:04 | -16.23946 | -71.70483 | 32540 ft | 427 kts | 265° |
| 2026-04-25 12:05 | -16.24711 | -71.76626 | 32558 ft | 427 kts | 265° |
| 2026-04-25 12:05 | -16.25470 | -71.82746 | 32563 ft | 427 kts | 265° |
| 2026-04-25 12:06 | -16.26226 | -71.88853 | 32555 ft | 427 kts | 265° |
| 2026-04-25 12:06 | -16.26986 | -71.95004 | 32559 ft | 428 kts | 265° |
| 2026-04-25 12:07 | -16.27739 | -72.01121 | 32574 ft | 429 kts | 265° |
| 2026-04-25 12:07 | -16.28491 | -72.07240 | 32516 ft | 427 kts | 265° |
| 2026-04-25 12:08 | -16.29244 | -72.13381 | 32462 ft | 427 kts | 265° |
| 2026-04-25 12:08 | -16.29995 | -72.19520 | 32428 ft | 429 kts | 265° |
| 2026-04-25 12:09 | -16.30747 | -72.25678 | 32365 ft | 429 kts | 265° |
| 2026-04-25 12:09 | -16.31490 | -72.31782 | 32327 ft | 427 kts | 265° |
| 2026-04-25 12:10 | -16.32234 | -72.37913 | 32297 ft | 428 kts | 265° |
| 2026-04-25 12:10 | -16.32980 | -72.44068 | 32259 ft | 428 kts | 265° |
| 2026-04-25 12:11 | -16.32811 | -72.50170 | 32226 ft | 426 kts | 282° |
| 2026-04-25 12:11 | -16.30756 | -72.55936 | 32213 ft | 427 kts | 298° |
| 2026-04-25 12:12 | -16.27897 | -72.60117 | 32249 ft | 429 kts | 303° |
| 2026-04-25 12:12 | -16.23821 | -72.66019 | 32301 ft | 428 kts | 303° |
| 2026-04-25 12:13 | -16.20365 | -72.71066 | 32311 ft | 429 kts | 303° |
| 2026-04-25 12:13 | -16.16928 | -72.76083 | 32349 ft | 429 kts | 303° |
| 2026-04-25 12:14 | -16.13460 | -72.81144 | 32351 ft | 430 kts | 303° |
| 2026-04-25 12:14 | -16.09995 | -72.86197 | 32364 ft | 429 kts | 303° |
| 2026-04-25 12:15 | -16.06532 | -72.91243 | 32343 ft | 429 kts | 303° |
| 2026-04-25 12:15 | -16.03081 | -72.96268 | 32378 ft | 428 kts | 303° |
| 2026-04-25 12:16 | -15.99600 | -73.01334 | 32478 ft | 430 kts | 303° |
| 2026-04-25 12:16 | -15.96132 | -73.06377 | 32386 ft | 429 kts | 303° |
| 2026-04-25 12:17 | -15.92666 | -73.11413 | 32430 ft | 429 kts | 303° |
| 2026-04-25 12:17 | -15.89190 | -73.16460 | 32419 ft | 429 kts | 303° |
| 2026-04-25 12:18 | -15.85719 | -73.21497 | 32419 ft | 431 kts | 303° |
| 2026-04-25 12:18 | -15.82262 | -73.26511 | 32418 ft | 429 kts | 303° |
| 2026-04-25 12:19 | -15.77043 | -73.34072 | 32546 ft | 429 kts | 303° |
| 2026-04-25 12:20 | -15.73554 | -73.39124 | 32524 ft | 429 kts | 303° |
| 2026-04-25 12:20 | -15.70073 | -73.44160 | 32599 ft | 429 kts | 303° |
| 2026-04-25 12:21 | -15.66594 | -73.49190 | 32664 ft | 430 kts | 303° |
| 2026-04-25 12:21 | -15.63124 | -73.54203 | 32709 ft | 430 kts | 303° |
| 2026-04-25 12:22 | -15.59640 | -73.59234 | 32675 ft | 429 kts | 303° |
| 2026-04-25 12:22 | -15.56141 | -73.64283 | 32710 ft | 430 kts | 304° |
| 2026-04-25 12:23 | -15.52654 | -73.69310 | 32716 ft | 430 kts | 304° |
| 2026-04-25 12:23 | -15.49161 | -73.74343 | 32720 ft | 432 kts | 304° |
| 2026-04-25 12:24 | -15.45661 | -73.79383 | 32687 ft | 431 kts | 304° |
| 2026-04-25 12:24 | -15.42161 | -73.84420 | 32710 ft | 432 kts | 304° |
| 2026-04-25 12:25 | -15.38660 | -73.89455 | 32728 ft | 430 kts | 304° |
| 2026-04-25 12:25 | -15.35165 | -73.94478 | 32721 ft | 432 kts | 304° |
| 2026-04-25 12:26 | -15.31646 | -73.99532 | 32726 ft | 431 kts | 304° |
| 2026-04-25 12:26 | -15.28139 | -74.04565 | 32711 ft | 431 kts | 304° |
| 2026-04-25 12:27 | -15.24628 | -74.09602 | 32667 ft | 433 kts | 304° |
| 2026-04-25 12:27 | -15.21117 | -74.14633 | 32645 ft | 432 kts | 304° |
| 2026-04-25 12:28 | -15.17573 | -74.19710 | 32620 ft | 433 kts | 304° |
| 2026-04-25 12:28 | -15.14060 | -74.24739 | 32576 ft | 435 kts | 304° |
| 2026-04-25 12:29 | -15.10522 | -74.29800 | 32593 ft | 433 kts | 304° |
| 2026-04-25 12:29 | -15.06996 | -74.34841 | 32617 ft | 434 kts | 304° |
| 2026-04-25 12:30 | -15.03460 | -74.39893 | 32613 ft | 435 kts | 304° |
| 2026-04-25 12:30 | -14.99906 | -74.44966 | 32608 ft | 435 kts | 304° |
| 2026-04-25 12:31 | -14.96372 | -74.50011 | 32616 ft | 435 kts | 304° |
| 2026-04-25 12:31 | -14.92821 | -74.55074 | 32603 ft | 434 kts | 304° |
| 2026-04-25 12:32 | -14.89244 | -74.60171 | 32591 ft | 435 kts | 304° |
| 2026-04-25 12:32 | -14.85709 | -74.65205 | 32595 ft | 435 kts | 304° |
| 2026-04-25 12:33 | -14.82175 | -74.70234 | 32576 ft | 437 kts | 304° |
| 2026-04-25 12:33 | -14.78619 | -74.75292 | 32359 ft | 436 kts | 304° |
| 2026-04-25 12:33 | -14.76841 | -74.77819 | 32097 ft | 435 kts | 304° |
| 2026-04-25 12:34 | -14.75065 | -74.80344 | 31836 ft | 435 kts | 304° |
| 2026-04-25 12:34 | -14.73290 | -74.82864 | 31576 ft | 434 kts | 304° |
| 2026-04-25 12:34 | -14.71506 | -74.85399 | 31308 ft | 433 kts | 304° |
| 2026-04-25 12:34 | -14.70329 | -74.87070 | 31131 ft | 432 kts | 304° |
| 2026-04-25 12:35 | -14.67982 | -74.90402 | 30780 ft | 429 kts | 304° |
| 2026-04-25 12:35 | -14.66228 | -74.92891 | 30515 ft | 429 kts | 304° |
| 2026-04-25 12:35 | -14.64479 | -74.95372 | 30251 ft | 429 kts | 304° |
| 2026-04-25 12:35 | -14.62744 | -74.97831 | 29988 ft | 426 kts | 304° |
| 2026-04-25 12:36 | -14.60979 | -75.00334 | 29719 ft | 426 kts | 304° |
| 2026-04-25 12:36 | -14.59255 | -75.02776 | 29459 ft | 425 kts | 304° |
| 2026-04-25 12:36 | -14.57501 | -75.05261 | 29188 ft | 424 kts | 304° |
| 2026-04-25 12:36 | -14.55764 | -75.07722 | 28924 ft | 423 kts | 304° |
| 2026-04-25 12:37 | -14.54071 | -75.10119 | 28641 ft | 405 kts | 304° |
| 2026-04-25 12:37 | -14.52442 | -75.12423 | 28331 ft | 386 kts | 304° |
| 2026-04-25 12:37 | -14.50907 | -75.14597 | 28027 ft | 368 kts | 304° |
| 2026-04-25 12:37 | -14.49432 | -75.16682 | 27723 ft | 353 kts | 304° |
| 2026-04-25 12:38 | -14.48019 | -75.18681 | 27417 ft | 338 kts | 304° |
| 2026-04-25 12:38 | -14.46665 | -75.20595 | 27110 ft | 325 kts | 303° |
| 2026-04-25 12:38 | -14.45342 | -75.22465 | 26800 ft | 313 kts | 304° |
| 2026-04-25 12:38 | -14.44083 | -75.24244 | 26501 ft | 302 kts | 303° |
| 2026-04-25 12:39 | -14.42874 | -75.25953 | 26200 ft | 292 kts | 303° |
| 2026-04-25 12:39 | -14.41686 | -75.27632 | 25895 ft | 282 kts | 303° |
| 2026-04-25 12:39 | -14.40546 | -75.29242 | 25591 ft | 274 kts | 303° |
| 2026-04-25 12:39 | -14.39454 | -75.30785 | 25311 ft | 273 kts | 303° |
| 2026-04-25 12:40 | -14.38319 | -75.32388 | 24897 ft | 275 kts | 303° |
| 2026-04-25 12:40 | -14.37189 | -75.33983 | 24485 ft | 277 kts | 303° |
| 2026-04-25 12:40 | -14.36052 | -75.35588 | 24089 ft | 276 kts | 303° |
| 2026-04-25 12:40 | -14.34914 | -75.37193 | 23687 ft | 275 kts | 303° |
| 2026-04-25 12:41 | -14.33796 | -75.38770 | 23292 ft | 274 kts | 303° |
| 2026-04-25 12:41 | -14.32680 | -75.40345 | 22898 ft | 273 kts | 303° |
| 2026-04-25 12:41 | -14.31566 | -75.41917 | 22503 ft | 272 kts | 303° |
| 2026-04-25 12:41 | -14.30453 | -75.43485 | 22122 ft | 270 kts | 303° |
| 2026-04-25 12:42 | -14.29349 | -75.45042 | 21769 ft | 269 kts | 303° |
| 2026-04-25 12:42 | -14.28607 | -75.46088 | 21530 ft | 269 kts | 304° |
| 2026-04-25 12:42 | -14.27148 | -75.48144 | 21052 ft | 267 kts | 304° |
| 2026-04-25 12:42 | -14.26041 | -75.49703 | 20697 ft | 267 kts | 304° |
| 2026-04-25 12:43 | -14.24947 | -75.51245 | 20347 ft | 266 kts | 304° |
| 2026-04-25 12:43 | -14.23864 | -75.52770 | 19993 ft | 266 kts | 305° |
| 2026-04-25 12:43 | -14.21698 | -75.55820 | 19262 ft | 263 kts | 305° |
| 2026-04-25 12:44 | -14.20622 | -75.57336 | 18929 ft | 263 kts | 305° |
| 2026-04-25 12:44 | -14.19549 | -75.58845 | 18591 ft | 260 kts | 306° |
| 2026-04-25 12:44 | -14.17414 | -75.61850 | 17897 ft | 259 kts | 306° |
| 2026-04-25 12:45 | -14.16356 | -75.63337 | 17544 ft | 259 kts | 306° |
| 2026-04-25 12:45 | -14.15285 | -75.64843 | 17151 ft | 259 kts | 307° |
| 2026-04-25 12:45 | -14.13182 | -75.67800 | 16461 ft | 256 kts | 307° |
| 2026-04-25 12:46 | -14.12132 | -75.69276 | 16108 ft | 254 kts | 307° |
| 2026-04-25 12:46 | -14.11092 | -75.70737 | 15691 ft | 253 kts | 308° |
| 2026-04-25 12:46 | -14.10057 | -75.72191 | 15347 ft | 253 kts | 307° |
| 2026-04-25 12:46 | -14.09006 | -75.73668 | 14986 ft | 253 kts | 308° |
| 2026-04-25 12:47 | -14.07977 | -75.75113 | 14623 ft | 251 kts | 308° |
| 2026-04-25 12:47 | -14.06946 | -75.76562 | 14209 ft | 251 kts | 308° |
| 2026-04-25 12:47 | -14.05911 | -75.78014 | 13891 ft | 250 kts | 308° |
| 2026-04-25 12:47 | -14.04896 | -75.79439 | 13511 ft | 249 kts | 308° |
| 2026-04-25 12:48 | -14.03868 | -75.80882 | 13097 ft | 248 kts | 308° |
| 2026-04-25 12:48 | -14.02862 | -75.82295 | 12805 ft | 247 kts | 308° |
| 2026-04-25 12:48 | -14.01844 | -75.83721 | 12463 ft | 246 kts | 308° |
| 2026-04-25 12:48 | -14.00836 | -75.85136 | 12129 ft | 244 kts | 308° |
| 2026-04-25 12:49 | -13.99834 | -75.86542 | 11775 ft | 243 kts | 308° |
| 2026-04-25 12:49 | -13.98837 | -75.87940 | 11453 ft | 242 kts | 308° |
| 2026-04-25 12:49 | -13.97842 | -75.89334 | 11103 ft | 241 kts | 307° |
| 2026-04-25 12:49 | -13.96848 | -75.90728 | 10703 ft | 240 kts | 307° |
| 2026-04-25 12:50 | -13.95873 | -75.92094 | 10333 ft | 239 kts | 307° |
| 2026-04-25 12:50 | -13.94898 | -75.93462 | 9984 ft | 237 kts | 307° |
| 2026-04-25 12:50 | -13.93910 | -75.94845 | 9641 ft | 236 kts | 307° |
| 2026-04-25 12:50 | -13.92943 | -75.96201 | 9343 ft | 234 kts | 307° |
| 2026-04-25 12:51 | -13.91990 | -75.97536 | 8950 ft | 232 kts | 307° |
| 2026-04-25 12:51 | -13.91033 | -75.98877 | 8566 ft | 230 kts | 307° |
| 2026-04-25 12:51 | -13.90085 | -76.00204 | 8191 ft | 228 kts | 307° |
| 2026-04-25 12:51 | -13.89161 | -76.01498 | 8098 ft | 225 kts | 307° |
| 2026-04-25 12:52 | -13.88222 | -76.02812 | 8081 ft | 226 kts | 307° |
| 2026-04-25 12:52 | -13.87295 | -76.04110 | 8080 ft | 228 kts | 307° |
| 2026-04-25 12:52 | -13.86355 | -76.05425 | 8058 ft | 227 kts | 307° |
| 2026-04-25 12:52 | -13.85416 | -76.06739 | 8067 ft | 229 kts | 307° |
| 2026-04-25 12:53 | -13.84476 | -76.08054 | 8062 ft | 228 kts | 307° |
| 2026-04-25 12:53 | -13.83548 | -76.09353 | 8056 ft | 226 kts | 307° |
| 2026-04-25 12:53 | -13.82606 | -76.10671 | 8054 ft | 228 kts | 307° |
| 2026-04-25 12:53 | -13.81669 | -76.11980 | 7879 ft | 229 kts | 307° |
| 2026-04-25 12:54 | -13.80725 | -76.13300 | 7623 ft | 228 kts | 307° |
| 2026-04-25 12:54 | -13.79783 | -76.14617 | 7377 ft | 225 kts | 307° |
| 2026-04-25 12:54 | -13.78867 | -76.15897 | 7134 ft | 223 kts | 307° |
| 2026-04-25 12:54 | -13.77951 | -76.17178 | 6883 ft | 220 kts | 307° |
| 2026-04-25 12:55 | -13.77046 | -76.18443 | 6649 ft | 220 kts | 307° |
| 2026-04-25 12:55 | -13.76437 | -76.19293 | 6479 ft | 219 kts | 306° |
| 2026-04-25 12:55 | -13.75233 | -76.20976 | 6146 ft | 218 kts | 307° |
| 2026-04-25 12:55 | -13.74242 | -76.22134 | 5900 ft | 218 kts | 325° |
| 2026-04-25 12:56 | -13.72959 | -76.22976 | 5674 ft | 217 kts | 328° |
| 2026-04-25 12:56 | -13.71675 | -76.23791 | 5422 ft | 216 kts | 328° |
| 2026-04-25 12:56 | -13.70400 | -76.24597 | 5171 ft | 217 kts | 328° |
| 2026-04-25 12:56 | -13.69106 | -76.25414 | 4919 ft | 216 kts | 329° |
| 2026-04-25 12:57 | -13.67821 | -76.26224 | 4674 ft | 217 kts | 328° |
| 2026-04-25 12:57 | -13.66520 | -76.27044 | 4422 ft | 217 kts | 329° |
| 2026-04-25 12:57 | -13.65232 | -76.27856 | 4172 ft | 217 kts | 329° |
| 2026-04-25 12:57 | -13.63941 | -76.28668 | 3922 ft | 216 kts | 329° |
| 2026-04-25 12:58 | -13.62657 | -76.29476 | 3673 ft | 216 kts | 329° |
| 2026-04-25 12:58 | -13.61369 | -76.30286 | 3421 ft | 215 kts | 329° |
| 2026-04-25 12:58 | -13.60100 | -76.31084 | 3174 ft | 215 kts | 329° |
| 2026-04-25 12:58 | -13.58818 | -76.31892 | 3046 ft | 214 kts | 329° |
| 2026-04-25 12:59 | -13.57540 | -76.32695 | 3056 ft | 215 kts | 329° |
| 2026-04-25 12:59 | -13.56264 | -76.33498 | 3049 ft | 217 kts | 329° |
| 2026-04-25 12:59 | -13.54967 | -76.34313 | 3045 ft | 216 kts | 329° |
| 2026-04-25 12:59 | -13.53690 | -76.35116 | 3051 ft | 216 kts | 329° |
| 2026-04-25 13:00 | -13.52390 | -76.35934 | 3053 ft | 216 kts | 329° |
| 2026-04-25 13:00 | -13.51971 | -76.36196 | 3044 ft | 216 kts | 329° |
| 2026-04-25 13:00 | -13.49827 | -76.37544 | 3055 ft | 215 kts | 329° |
| 2026-04-25 13:00 | -13.48627 | -76.38448 | 3354 ft | 218 kts | 306° |
| 2026-04-25 13:01 | -13.48203 | -76.39912 | 3704 ft | 219 kts | 262° |
| 2026-04-25 13:01 | -13.48782 | -76.41349 | 4101 ft | 221 kts | 238° |
| 2026-04-25 13:01 | -13.49727 | -76.42583 | 4455 ft | 222 kts | 218° |
| 2026-04-25 13:01 | -13.51016 | -76.43483 | 4758 ft | 222 kts | 208° |
| 2026-04-25 13:02 | -13.52497 | -76.43796 | 5036 ft | 224 kts | 168° |
| 2026-04-25 13:02 | -13.53854 | -76.43038 | 5093 ft | 224 kts | 126° |
| 2026-04-25 13:02 | -13.54604 | -76.41647 | 5082 ft | 222 kts | 116° |
| 2026-04-25 13:02 | -13.55293 | -76.40233 | 5051 ft | 221 kts | 116° |
| 2026-04-25 13:03 | -13.55977 | -76.38836 | 5078 ft | 220 kts | 116° |
| 2026-04-25 13:03 | -13.56667 | -76.37425 | 5049 ft | 220 kts | 116° |
| 2026-04-25 13:03 | -13.57347 | -76.36023 | 5056 ft | 220 kts | 116° |
| 2026-04-25 13:03 | -13.58030 | -76.34611 | 5043 ft | 219 kts | 115° |
| 2026-04-25 13:04 | -13.58716 | -76.33202 | 5048 ft | 221 kts | 116° |
| 2026-04-25 13:04 | -13.59405 | -76.31788 | 5053 ft | 220 kts | 115° |
| 2026-04-25 13:04 | -13.60092 | -76.30374 | 5054 ft | 219 kts | 116° |
| 2026-04-25 13:04 | -13.60776 | -76.28970 | 5050 ft | 219 kts | 115° |
| 2026-04-25 13:05 | -13.61449 | -76.27585 | 4884 ft | 219 kts | 116° |
| 2026-04-25 13:05 | -13.61775 | -76.26110 | 4572 ft | 208 kts | 77° |
| 2026-04-25 13:05 | -13.61215 | -76.24793 | 4322 ft | 198 kts | 66° |
| 2026-04-25 13:05 | -13.60699 | -76.23499 | 4014 ft | 193 kts | 69° |
| 2026-04-25 13:06 | -13.60456 | -76.22872 | 3871 ft | 191 kts | 69° |
| 2026-04-25 13:06 | -13.60310 | -76.22495 | 3773 ft | 190 kts | 69° |
| 2026-04-25 13:06 | -13.59820 | -76.21240 | 3494 ft | 189 kts | 69° |
| 2026-04-25 13:07 | -13.59327 | -76.19984 | 3187 ft | 188 kts | 69° |
| 2026-04-25 13:07 | -13.58976 | -76.18724 | 3055 ft | 177 kts | 88° |
| 2026-04-25 13:07 | -13.59065 | -76.17512 | 3084 ft | 167 kts | 102° |
| 2026-04-25 13:07 | -13.59365 | -76.16410 | 3056 ft | 154 kts | 106° |
| 2026-04-25 13:08 | -13.59663 | -76.15351 | 2807 ft | 153 kts | 104° |
| 2026-04-25 13:08 | -13.59993 | -76.14339 | 2429 ft | 150 kts | 112° |
| 2026-04-25 13:08 | -13.60473 | -76.13391 | 2047 ft | 150 kts | 116° |
| 2026-04-25 13:08 | -13.60954 | -76.12489 | 1747 ft | 147 kts | 117° |
| 2026-04-25 13:09 | -13.61554 | -76.11641 | 1475 ft | 151 kts | 136° |
| 2026-04-25 13:09 | -13.62480 | -76.11140 | 1195 ft | 153 kts | 166° |
| 2026-04-25 13:09 | -13.63549 | -76.11192 | 924 ft | 152 kts | 190° |
| 2026-04-25 13:09 | -13.64554 | -76.11459 | 865 ft | 150 kts | 204° |
| 2026-04-25 13:10 | -13.65372 | -76.12144 | 864 ft | 153 kts | 231° |
| 2026-04-25 13:10 | -13.65890 | -76.13103 | 868 ft | 154 kts | 242° |
| 2026-04-25 13:10 | -13.66384 | -76.14091 | 865 ft | 154 kts | 242° |
| 2026-04-25 13:10 | -13.66902 | -76.15057 | 861 ft | 153 kts | 232° |
| 2026-04-25 13:11 | -13.67538 | -76.15926 | 878 ft | 153 kts | 233° |
| 2026-04-25 13:11 | -13.68263 | -76.16725 | 860 ft | 153 kts | 219° |
| 2026-04-25 13:11 | -13.69053 | -76.17458 | 791 ft | 152 kts | 220° |
| 2026-04-25 13:11 | -13.69872 | -76.18156 | 747 ft | 151 kts | 219° |
| 2026-04-25 13:12 | -13.70686 | -76.18836 | 622 ft | 150 kts | 221° |
| 2026-04-25 13:12 | -13.71478 | -76.19528 | 495 ft | 149 kts | 218° |
| 2026-04-25 13:12 | -13.72284 | -76.20189 | 319 ft | 148 kts | 220° |
| 2026-04-25 13:12 | -13.72823 | -76.20640 | 190 ft | 146 kts | 219° |
| 2026-04-25 13:13 | -13.73804 | -76.21474 | 50 ft | 107 kts | 221° |
| 2026-04-25 13:13 | -13.74179 | -76.21769 | 45 ft | 34 kts | 227° |
| 2026-04-25 13:13 | -13.74232 | -76.21847 | 43 ft | 7 kts | 265° |
| 2026-04-25 13:13 | -13.74227 | -76.21875 | 43 ft | 0 kts | 287° |
| 2026-04-25 13:15 | -13.74218 | -76.21901 | 42 ft | 9 kts | 292° |
| 2026-04-25 13:15 | -13.74188 | -76.21965 | 40 ft | 10 kts | 297° |
| 2026-04-25 13:16 | -13.74154 | -76.22030 | 39 ft | 9 kts | 300° |
| 2026-04-25 13:16 | -13.74121 | -76.22085 | 37 ft | 7 kts | 309° |
| 2026-04-25 13:16 | -13.74095 | -76.22118 | 37 ft | 0 kts | 305° |